Flight Track Log - Related Links

Times and Time Zones

All times are in EDT time to prevent confusion due to time zone crossing. See the UAL5911 flight status page for this flight to view local times or setup timezone preferences in your user account.

Time Position Orientation Groundspeed Altitude Reporting Facility
EDT Latitude Longitude Course Direction KTS MPH feet Rate Location/Type
Fri 04:05:55 PM 40.7183 -89.7603 11° North 270 311 6,900  Level Chicago Center
Fri 04:06:57 PM 40.7969 -89.7300 16° North 292 336 9,400 1,984 Climbing Chicago Center
Fri 04:07:00 PM 40.9988 -89.6115 14° North  Level FlightAware Approximate
Fri 04:07:59 PM 40.8950 -89.6922 16° North 304 350 11,000  Level Chicago Center
Fri 04:08:00 PM 41.0684 -89.5969 North  Level FlightAware Approximate
Fri 04:09:00 PM 41.1432 -89.5845 North  Level FlightAware Approximate
Fri 04:09:01 PM 40.9939 -89.6533 17° North 359 413 11,000  Level Chicago Center
Fri 04:10:00 PM 41.1827 -89.5035 61° Northeast  Level FlightAware Approximate
Fri 04:10:03 PM 41.0833 -89.6175 17° North 346 398 11,000  Level Chicago Center
Fri 04:11:05 PM 41.1411 -89.5250 50° Northeast 329 379 11,000  Level Chicago Center
Fri 04:12:07 PM 41.1911 -89.4183 58° Northeast 337 388 11,000  Level Chicago Center
Fri 04:13:09 PM 41.2428 -89.3028 59° Northeast 356 410 11,000  Level Chicago Center
Fri 04:14:11 PM 41.3014 -89.1744 59° Northeast 357 411 11,000  Level Chicago Center
Fri 04:15:13 PM 41.3525 -89.0603 59° Northeast 358 412 11,000  Level Chicago Center
Fri 04:16:15 PM 41.4047 -88.9481 58° Northeast 358 412 11,000  Level Chicago Center
Fri 04:17:17 PM 41.4564 -88.8339 59° Northeast 360 414 11,000  Level Chicago Center
Fri 04:18:19 PM 41.5172 -88.6953 60° Northeast 362 417 11,000  Level Chicago Center
Fri 04:19:21 PM 41.5642 -88.5772 62° Northeast 361 415 11,000 -96 Level Chicago Center
Fri 04:20:24 PM 41.6275 -88.4747 50° Northeast 358 412 10,800 -816 Descending Chicago Center
Fri 04:21:26 PM 41.6844 -88.3853 50° Northeast 321 369 9,300 -1,355 Descending Chicago Center
Fri 04:22:28 PM 41.7394 -88.2997 49° Northeast 303 349 8,000 -823 Descending Chicago Center
Fri 04:23:30 PM 41.7822 -88.2117 57° Northeast 282 325 7,600 -484 Descending Chicago Center
Fri 04:24:32 PM 41.8244 -88.1200 58° Northeast 246 283 7,000 -290 Descending Chicago Center
Fri 04:25:34 PM 41.8800 -88.0939 19° North 232 267 7,000  Level Chicago Center
Fri 04:26:07 PM 41.9167 -88.0833 12° North 221 254 7,000  Level Chicago TRACON
Fri 04:27:01 PM 41.9667 -88.0833 360° North 223 257 7,000 -500 Level Chicago TRACON
Fri 04:28:07 PM 42.0167 -88.1167 334° Northwest 204 235 6,000 -848 Descending Chicago TRACON
Fri 04:28:40 PM 42.0428 -88.1408 326° Northwest 206 237 5,600 -632 Descending Chicago Center
Fri 04:29:42 PM 42.0994 -88.1903 327° Northwest 204 235 5,000 -532 Descending Chicago Center
Fri 04:30:44 PM 42.1494 -88.1644 21° North 220 253 4,500 -484 Descending Chicago Center
Fri 04:31:46 PM 42.1414 -88.1025 100° East 206 237 4,000 -484 Descending Chicago Center

Login

Don't have an account? Register now (free) for customized features, flight alerts, and more!